sensor_id;sensor_type;location;lat;lon;timestamp;temperature;humidity
32706;DHT22;19094;50.972;3.538;2023-03-01T00:01:50;11.30;50.90
32706;DHT22;19094;50.972;3.538;2023-03-01T00:04:16;11.30;50.70
32706;DHT22;19094;50.972;3.538;2023-03-01T00:06:45;11.30;50.70
32706;DHT22;19094;50.972;3.538;2023-03-01T00:09:14;11.30;50.80
32706;DHT22;19094;50.972;3.538;2023-03-01T00:11:40;11.30;50.90
32706;DHT22;19094;50.972;3.538;2023-03-01T00:14:06;11.20;51.10
32706;DHT22;19094;50.972;3.538;2023-03-01T00:16:37;11.20;50.70
32706;DHT22;19094;50.972;3.538;2023-03-01T00:19:05;11.20;51.00
32706;DHT22;19094;50.972;3.538;2023-03-01T00:21:31;11.20;51.10
32706;DHT22;19094;50.972;3.538;2023-03-01T00:23:57;11.20;51.00
32706;DHT22;19094;50.972;3.538;2023-03-01T00:26:24;11.20;50.90
32706;DHT22;19094;50.972;3.538;2023-03-01T00:28:51;11.20;51.00
32706;DHT22;19094;50.972;3.538;2023-03-01T00:31:22;11.10;51.30
32706;DHT22;19094;50.972;3.538;2023-03-01T00:33:48;11.20;51.20
32706;DHT22;19094;50.972;3.538;2023-03-01T00:36:17;11.10;51.20
32706;DHT22;19094;50.972;3.538;2023-03-01T00:38:44;11.10;51.30
32706;DHT22;19094;50.972;3.538;2023-03-01T00:41:13;11.10;51.30
32706;DHT22;19094;50.972;3.538;2023-03-01T00:43:39;11.10;51.50
32706;DHT22;19094;50.972;3.538;2023-03-01T00:46:10;11.10;51.20
32706;DHT22;19094;50.972;3.538;2023-03-01T00:48:37;11.10;51.50
32706;DHT22;19094;50.972;3.538;2023-03-01T00:51:21;11.00;51.40
32706;DHT22;19094;50.972;3.538;2023-03-01T00:53:47;11.00;51.40
32706;DHT22;19094;50.972;3.538;2023-03-01T00:56:14;11.00;52.00
32706;DHT22;19094;50.972;3.538;2023-03-01T00:58:40;11.00;51.50
32706;DHT22;19094;50.972;3.538;2023-03-01T01:01:15;11.00;51.50
32706;DHT22;19094;50.972;3.538;2023-03-01T01:03:52;11.00;51.80
32706;DHT22;19094;50.972;3.538;2023-03-01T01:06:24;11.00;51.90
32706;DHT22;19094;50.972;3.538;2023-03-01T01:08:51;11.00;51.70
32706;DHT22;19094;50.972;3.538;2023-03-01T01:11:17;11.00;51.60
32706;DHT22;19094;50.972;3.538;2023-03-01T01:13:45;11.00;52.00
32706;DHT22;19094;50.972;3.538;2023-03-01T01:16:12;10.90;51.70
32706;DHT22;19094;50.972;3.538;2023-03-01T01:18:37;10.90;52.00
32706;DHT22;19094;50.972;3.538;2023-03-01T01:21:09;10.90;52.00
32706;DHT22;19094;50.972;3.538;2023-03-01T01:23:35;10.80;51.80
32706;DHT22;19094;50.972;3.538;2023-03-01T01:26:06;10.80;52.10
32706;DHT22;19094;50.972;3.538;2023-03-01T01:28:32;10.80;52.00
32706;DHT22;19094;50.972;3.538;2023-03-01T01:30:58;10.80;52.10
32706;DHT22;19094;50.972;3.538;2023-03-01T01:33:24;10.80;52.20
32706;DHT22;19094;50.972;3.538;2023-03-01T01:35:50;10.80;52.30
32706;DHT22;19094;50.972;3.538;2023-03-01T01:38:15;10.80;52.20
32706;DHT22;19094;50.972;3.538;2023-03-01T01:40:45;10.70;52.40
32706;DHT22;19094;50.972;3.538;2023-03-01T01:45:48;10.80;52.40
32706;DHT22;19094;50.972;3.538;2023-03-01T01:48:21;10.70;52.40
32706;DHT22;19094;50.972;3.538;2023-03-01T01:50:56;10.70;52.40
32706;DHT22;19094;50.972;3.538;2023-03-01T01:53:24;10.70;52.50
32706;DHT22;19094;50.972;3.538;2023-03-01T01:55:58;10.70;53.10
32706;DHT22;19094;50.972;3.538;2023-03-01T01:58:28;10.70;52.60
32706;DHT22;19094;50.972;3.538;2023-03-01T02:00:54;10.80;52.60
32706;DHT22;19094;50.972;3.538;2023-03-01T02:03:26;10.80;52.60
32706;DHT22;19094;50.972;3.538;2023-03-01T02:06:03;10.70;52.50
32706;DHT22;19094;50.972;3.538;2023-03-01T02:08:32;10.70;52.50
32706;DHT22;19094;50.972;3.538;2023-03-01T02:10:59;10.70;52.70
32706;DHT22;19094;50.972;3.538;2023-03-01T02:13:31;10.70;52.70
32706;DHT22;19094;50.972;3.538;2023-03-01T02:15:58;10.70;52.70
32706;DHT22;19094;50.972;3.538;2023-03-01T02:18:24;10.70;52.90
32706;DHT22;19094;50.972;3.538;2023-03-01T02:21:14;10.70;52.80
32706;DHT22;19094;50.972;3.538;2023-03-01T02:23:42;10.70;52.50
32706;DHT22;19094;50.972;3.538;2023-03-01T02:28:44;10.70;53.00
32706;DHT22;19094;50.972;3.538;2023-03-01T02:31:14;10.60;53.40
32706;DHT22;19094;50.972;3.538;2023-03-01T02:33:58;10.60;52.90
32706;DHT22;19094;50.972;3.538;2023-03-01T02:36:29;10.60;52.90
32706;DHT22;19094;50.972;3.538;2023-03-01T02:38:58;10.60;53.20
32706;DHT22;19094;50.972;3.538;2023-03-01T02:41:26;10.60;53.30
32706;DHT22;19094;50.972;3.538;2023-03-01T02:43:53;10.60;53.30
32706;DHT22;19094;50.972;3.538;2023-03-01T02:46:23;10.50;53.30
32706;DHT22;19094;50.972;3.538;2023-03-01T02:48:57;10.50;53.40
32706;DHT22;19094;50.972;3.538;2023-03-01T02:56:35;10.50;53.50
32706;DHT22;19094;50.972;3.538;2023-03-01T02:59:01;10.50;53.50
32706;DHT22;19094;50.972;3.538;2023-03-01T03:01:28;10.50;53.50
32706;DHT22;19094;50.972;3.538;2023-03-01T03:04:07;10.50;53.40
32706;DHT22;19094;50.972;3.538;2023-03-01T03:06:35;10.50;53.60
32706;DHT22;19094;50.972;3.538;2023-03-01T03:09:02;10.50;53.40
32706;DHT22;19094;50.972;3.538;2023-03-01T03:11:28;10.50;53.60
32706;DHT22;19094;50.972;3.538;2023-03-01T03:13:54;10.40;53.60
32706;DHT22;19094;50.972;3.538;2023-03-01T03:16:21;10.40;53.60
32706;DHT22;19094;50.972;3.538;2023-03-01T03:18:47;10.40;53.70
32706;DHT22;19094;50.972;3.538;2023-03-01T03:21:13;10.40;53.60
32706;DHT22;19094;50.972;3.538;2023-03-01T03:23:39;10.40;53.80
32706;DHT22;19094;50.972;3.538;2023-03-01T03:26:05;10.40;53.80
32706;DHT22;19094;50.972;3.538;2023-03-01T03:28:35;10.40;53.90
32706;DHT22;19094;50.972;3.538;2023-03-01T03:31:01;10.40;54.00
32706;DHT22;19094;50.972;3.538;2023-03-01T03:33:30;10.30;53.80
32706;DHT22;19094;50.972;3.538;2023-03-01T03:35:56;10.40;53.80
32706;DHT22;19094;50.972;3.538;2023-03-01T03:38:22;10.40;53.80
32706;DHT22;19094;50.972;3.538;2023-03-01T03:43:20;10.30;53.80
32706;DHT22;19094;50.972;3.538;2023-03-01T03:45:48;10.30;53.90
32706;DHT22;19094;50.972;3.538;2023-03-01T03:48:14;10.30;54.00
32706;DHT22;19094;50.972;3.538;2023-03-01T03:50:41;10.30;53.90
32706;DHT22;19094;50.972;3.538;2023-03-01T03:53:09;10.30;54.00
32706;DHT22;19094;50.972;3.538;2023-03-01T03:55:36;10.40;54.00
32706;DHT22;19094;50.972;3.538;2023-03-01T03:58:06;10.40;54.10
32706;DHT22;19094;50.972;3.538;2023-03-01T04:00:38;10.40;54.00
32706;DHT22;19094;50.972;3.538;2023-03-01T04:03:05;10.40;54.00
32706;DHT22;19094;50.972;3.538;2023-03-01T04:05:31;10.30;54.00
32706;DHT22;19094;50.972;3.538;2023-03-01T04:07:57;10.30;54.00
32706;DHT22;19094;50.972;3.538;2023-03-01T04:10:43;10.30;54.10
32706;DHT22;19094;50.972;3.538;2023-03-01T04:13:12;10.30;54.10
32706;DHT22;19094;50.972;3.538;2023-03-01T04:15:39;10.30;54.10
32706;DHT22;19094;50.972;3.538;2023-03-01T04:18:05;10.30;54.20
32706;DHT22;19094;50.972;3.538;2023-03-01T04:20:33;10.30;54.20
32706;DHT22;19094;50.972;3.538;2023-03-01T04:23:09;10.30;54.10
32706;DHT22;19094;50.972;3.538;2023-03-01T04:25:44;10.30;54.30
32706;DHT22;19094;50.972;3.538;2023-03-01T04:28:10;10.20;54.30
32706;DHT22;19094;50.972;3.538;2023-03-01T04:30:37;10.30;54.30
32706;DHT22;19094;50.972;3.538;2023-03-01T04:33:05;10.30;54.40
32706;DHT22;19094;50.972;3.538;2023-03-01T04:35:31;10.30;54.40
32706;DHT22;19094;50.972;3.538;2023-03-01T04:37:57;10.30;54.30
32706;DHT22;19094;50.972;3.538;2023-03-01T04:40:23;10.30;54.20
32706;DHT22;19094;50.972;3.538;2023-03-01T04:42:49;10.30;54.30
32706;DHT22;19094;50.972;3.538;2023-03-01T04:45:15;10.30;54.30
32706;DHT22;19094;50.972;3.538;2023-03-01T04:47:42;10.30;54.40
32706;DHT22;19094;50.972;3.538;2023-03-01T04:50:09;10.20;54.20
32706;DHT22;19094;50.972;3.538;2023-03-01T04:52:35;10.20;54.20
32706;DHT22;19094;50.972;3.538;2023-03-01T04:55:01;10.20;54.30
32706;DHT22;19094;50.972;3.538;2023-03-01T04:57:27;10.10;54.50
32706;DHT22;19094;50.972;3.538;2023-03-01T04:59:52;10.10;54.60
32706;DHT22;19094;50.972;3.538;2023-03-01T05:02:18;10.10;54.50
32706;DHT22;19094;50.972;3.538;2023-03-01T05:04:44;10.10;54.50
32706;DHT22;19094;50.972;3.538;2023-03-01T05:07:09;10.10;54.80
32706;DHT22;19094;50.972;3.538;2023-03-01T05:09:35;10.10;54.60
32706;DHT22;19094;50.972;3.538;2023-03-01T05:12:01;10.10;54.60
32706;DHT22;19094;50.972;3.538;2023-03-01T05:14:26;10.10;54.60
32706;DHT22;19094;50.972;3.538;2023-03-01T05:16:52;10.00;55.10
32706;DHT22;19094;50.972;3.538;2023-03-01T05:19:17;10.10;54.50
32706;DHT22;19094;50.972;3.538;2023-03-01T05:21:48;10.10;54.40
32706;DHT22;19094;50.972;3.538;2023-03-01T05:24:31;10.00;54.30
32706;DHT22;19094;50.972;3.538;2023-03-01T05:26:58;10.00;54.50
32706;DHT22;19094;50.972;3.538;2023-03-01T05:29:25;10.10;54.60
32706;DHT22;19094;50.972;3.538;2023-03-01T05:32:01;10.10;54.50
32706;DHT22;19094;50.972;3.538;2023-03-01T05:34:35;10.10;54.40
32706;DHT22;19094;50.972;3.538;2023-03-01T05:37:01;10.10;54.40
32706;DHT22;19094;50.972;3.538;2023-03-01T05:39:28;10.10;54.40
32706;DHT22;19094;50.972;3.538;2023-03-01T05:41:55;10.10;54.50
32706;DHT22;19094;50.972;3.538;2023-03-01T05:44:22;10.00;54.40
32706;DHT22;19094;50.972;3.538;2023-03-01T05:46:47;10.10;54.50
32706;DHT22;19094;50.972;3.538;2023-03-01T05:49:14;10.10;54.40
32706;DHT22;19094;50.972;3.538;2023-03-01T05:51:40;10.00;54.50
32706;DHT22;19094;50.972;3.538;2023-03-01T05:54:07;10.00;54.50
32706;DHT22;19094;50.972;3.538;2023-03-01T05:56:34;10.00;54.40
32706;DHT22;19094;50.972;3.538;2023-03-01T05:59:00;10.00;54.40
32706;DHT22;19094;50.972;3.538;2023-03-01T06:01:26;10.00;54.40
32706;DHT22;19094;50.972;3.538;2023-03-01T06:03:52;10.10;54.20
32706;DHT22;19094;50.972;3.538;2023-03-01T06:06:18;10.00;54.30
32706;DHT22;19094;50.972;3.538;2023-03-01T06:08:43;10.00;54.30
32706;DHT22;19094;50.972;3.538;2023-03-01T06:11:09;10.00;54.30
32706;DHT22;19094;50.972;3.538;2023-03-01T06:13:35;10.00;54.30
32706;DHT22;19094;50.972;3.538;2023-03-01T06:16:03;10.00;54.40
32706;DHT22;19094;50.972;3.538;2023-03-01T06:18:29;10.10;54.30
32706;DHT22;19094;50.972;3.538;2023-03-01T06:20:55;10.10;54.20
32706;DHT22;19094;50.972;3.538;2023-03-01T06:23:22;10.10;54.30
32706;DHT22;19094;50.972;3.538;2023-03-01T06:25:48;10.10;54.10
32706;DHT22;19094;50.972;3.538;2023-03-01T06:28:13;10.10;54.00
32706;DHT22;19094;50.972;3.538;2023-03-01T06:30:39;10.10;54.00
32706;DHT22;19094;50.972;3.538;2023-03-01T06:33:05;10.10;54.10
32706;DHT22;19094;50.972;3.538;2023-03-01T06:35:30;10.10;54.00
32706;DHT22;19094;50.972;3.538;2023-03-01T06:37:57;10.00;54.00
32706;DHT22;19094;50.972;3.538;2023-03-01T06:40:23;10.00;54.00
32706;DHT22;19094;50.972;3.538;2023-03-01T06:42:50;10.00;54.10
32706;DHT22;19094;50.972;3.538;2023-03-01T06:45:17;10.00;54.10
32706;DHT22;19094;50.972;3.538;2023-03-01T06:47:42;10.00;54.00
32706;DHT22;19094;50.972;3.538;2023-03-01T06:50:09;10.00;54.10
32706;DHT22;19094;50.972;3.538;2023-03-01T06:52:35;10.00;54.10
32706;DHT22;19094;50.972;3.538;2023-03-01T06:55:00;10.00;54.20
32706;DHT22;19094;50.972;3.538;2023-03-01T06:57:27;10.00;54.20
32706;DHT22;19094;50.972;3.538;2023-03-01T06:59:52;9.90;54.10
32706;DHT22;19094;50.972;3.538;2023-03-01T07:02:18;9.90;54.30
32706;DHT22;19094;50.972;3.538;2023-03-01T07:04:44;9.90;54.00
32706;DHT22;19094;50.972;3.538;2023-03-01T07:07:10;10.00;54.20
32706;DHT22;19094;50.972;3.538;2023-03-01T07:09:35;10.00;54.20
32706;DHT22;19094;50.972;3.538;2023-03-01T07:12:01;9.90;54.20
32706;DHT22;19094;50.972;3.538;2023-03-01T07:14:27;9.90;54.00
32706;DHT22;19094;50.972;3.538;2023-03-01T07:16:53;9.70;54.10
32706;DHT22;19094;50.972;3.538;2023-03-01T07:19:19;9.60;54.30
32706;DHT22;19094;50.972;3.538;2023-03-01T07:21:45;9.60;54.40
32706;DHT22;19094;50.972;3.538;2023-03-01T07:24:11;9.60;54.80
32706;DHT22;19094;50.972;3.538;2023-03-01T07:26:37;9.60;54.60
32706;DHT22;19094;50.972;3.538;2023-03-01T07:29:05;9.60;54.70
32706;DHT22;19094;50.972;3.538;2023-03-01T07:31:31;9.60;54.70
32706;DHT22;19094;50.972;3.538;2023-03-01T07:33:57;9.60;54.70
32706;DHT22;19094;50.972;3.538;2023-03-01T07:36:22;9.70;54.60
32706;DHT22;19094;50.972;3.538;2023-03-01T07:38:48;9.70;54.50
32706;DHT22;19094;50.972;3.538;2023-03-01T07:41:14;9.80;54.50
32706;DHT22;19094;50.972;3.538;2023-03-01T07:43:40;9.80;54.40
32706;DHT22;19094;50.972;3.538;2023-03-01T07:46:06;9.90;54.10
32706;DHT22;19094;50.972;3.538;2023-03-01T07:48:32;10.00;53.90
32706;DHT22;19094;50.972;3.538;2023-03-01T07:51:03;10.10;53.60
32706;DHT22;19094;50.972;3.538;2023-03-01T07:53:29;10.00;53.60
32706;DHT22;19094;50.972;3.538;2023-03-01T07:56:12;10.00;53.40
32706;DHT22;19094;50.972;3.538;2023-03-01T07:58:41;10.10;53.40
32706;DHT22;19094;50.972;3.538;2023-03-01T08:01:19;10.00;53.50
32706;DHT22;19094;50.972;3.538;2023-03-01T08:03:45;10.00;53.50
32706;DHT22;19094;50.972;3.538;2023-03-01T08:06:12;10.10;53.50
32706;DHT22;19094;50.972;3.538;2023-03-01T08:08:38;10.10;53.30
32706;DHT22;19094;50.972;3.538;2023-03-01T08:11:06;10.10;53.40
32706;DHT22;19094;50.972;3.538;2023-03-01T08:13:32;10.20;53.40
32706;DHT22;19094;50.972;3.538;2023-03-01T08:16:02;10.20;53.20
32706;DHT22;19094;50.972;3.538;2023-03-01T08:18:28;10.20;53.30
32706;DHT22;19094;50.972;3.538;2023-03-01T08:20:54;10.20;53.30
32706;DHT22;19094;50.972;3.538;2023-03-01T08:23:20;10.30;53.40
32706;DHT22;19094;50.972;3.538;2023-03-01T08:25:46;10.30;53.40
32706;DHT22;19094;50.972;3.538;2023-03-01T08:28:11;10.30;53.60
32706;DHT22;19094;50.972;3.538;2023-03-01T08:30:37;10.40;53.60
32706;DHT22;19094;50.972;3.538;2023-03-01T08:33:03;10.50;53.30
32706;DHT22;19094;50.972;3.538;2023-03-01T08:35:29;10.50;53.50
32706;DHT22;19094;50.972;3.538;2023-03-01T08:37:54;10.60;53.30
32706;DHT22;19094;50.972;3.538;2023-03-01T08:40:20;10.60;53.50
32706;DHT22;19094;50.972;3.538;2023-03-01T08:42:46;10.70;53.50
32706;DHT22;19094;50.972;3.538;2023-03-01T08:45:12;10.80;53.30
32706;DHT22;19094;50.972;3.538;2023-03-01T08:47:39;10.70;52.90
32706;DHT22;19094;50.972;3.538;2023-03-01T08:50:05;10.70;53.10
32706;DHT22;19094;50.972;3.538;2023-03-01T08:52:32;10.70;53.20
32706;DHT22;19094;50.972;3.538;2023-03-01T08:54:58;10.70;52.90
32706;DHT22;19094;50.972;3.538;2023-03-01T08:57:24;10.70;53.30
32706;DHT22;19094;50.972;3.538;2023-03-01T08:59:49;10.80;53.30
32706;DHT22;19094;50.972;3.538;2023-03-01T09:02:17;10.90;53.30
32706;DHT22;19094;50.972;3.538;2023-03-01T09:04:43;11.00;53.10
32706;DHT22;19094;50.972;3.538;2023-03-01T09:07:10;11.00;53.20
32706;DHT22;19094;50.972;3.538;2023-03-01T09:09:36;11.10;53.50
32706;DHT22;19094;50.972;3.538;2023-03-01T09:12:02;11.10;53.50
32706;DHT22;19094;50.972;3.538;2023-03-01T09:14:28;11.10;53.40
32706;DHT22;19094;50.972;3.538;2023-03-01T09:16:54;11.10;53.40
32706;DHT22;19094;50.972;3.538;2023-03-01T09:19:19;11.10;53.70
32706;DHT22;19094;50.972;3.538;2023-03-01T09:21:45;11.20;53.70
32706;DHT22;19094;50.972;3.538;2023-03-01T09:24:19;11.20;53.60
32706;DHT22;19094;50.972;3.538;2023-03-01T09:26:46;11.20;53.70
32706;DHT22;19094;50.972;3.538;2023-03-01T09:29:12;11.20;53.50
32706;DHT22;19094;50.972;3.538;2023-03-01T09:31:38;11.20;53.50
32706;DHT22;19094;50.972;3.538;2023-03-01T09:34:04;11.20;53.70
32706;DHT22;19094;50.972;3.538;2023-03-01T09:36:30;11.30;53.50
32706;DHT22;19094;50.972;3.538;2023-03-01T09:38:57;11.40;54.00
32706;DHT22;19094;50.972;3.538;2023-03-01T09:41:50;11.40;53.70
32706;DHT22;19094;50.972;3.538;2023-03-01T09:44:34;11.40;54.00
32706;DHT22;19094;50.972;3.538;2023-03-01T09:47:02;11.40;54.00
32706;DHT22;19094;50.972;3.538;2023-03-01T09:49:30;11.40;54.00
32706;DHT22;19094;50.972;3.538;2023-03-01T09:52:06;11.30;53.70
32706;DHT22;19094;50.972;3.538;2023-03-01T09:54:35;11.40;54.10
32706;DHT22;19094;50.972;3.538;2023-03-01T09:57:05;11.40;53.90
32706;DHT22;19094;50.972;3.538;2023-03-01T10:10:05;11.60;54.30
32706;DHT22;19094;50.972;3.538;2023-03-01T10:12:39;11.60;54.30
32706;DHT22;19094;50.972;3.538;2023-03-01T10:15:07;11.60;54.10
32706;DHT22;19094;50.972;3.538;2023-03-01T10:23:10;11.60;54.40
32706;DHT22;19094;50.972;3.538;2023-03-01T10:28:24;11.60;54.50
32706;DHT22;19094;50.972;3.538;2023-03-01T10:30:51;11.60;54.50
32706;DHT22;19094;50.972;3.538;2023-03-01T10:33:22;11.60;54.40
32706;DHT22;19094;50.972;3.538;2023-03-01T10:35:48;11.70;53.80
32706;DHT22;19094;50.972;3.538;2023-03-01T10:38:15;11.70;54.60
32706;DHT22;19094;50.972;3.538;2023-03-01T10:40:55;11.70;54.40
32706;DHT22;19094;50.972;3.538;2023-03-01T10:43:45;11.70;54.70
32706;DHT22;19094;50.972;3.538;2023-03-01T10:46:29;11.70;54.10
32706;DHT22;19094;50.972;3.538;2023-03-01T10:49:19;11.80;54.10
32706;DHT22;19094;50.972;3.538;2023-03-01T10:51:47;11.90;54.70
32706;DHT22;19094;50.972;3.538;2023-03-01T10:56:49;11.90;54.10
32706;DHT22;19094;50.972;3.538;2023-03-01T10:59:26;11.90;54.20
32706;DHT22;19094;50.972;3.538;2023-03-01T11:08:10;12.30;52.50
32706;DHT22;19094;50.972;3.538;2023-03-01T11:10:37;12.30;52.30
32706;DHT22;19094;50.972;3.538;2023-03-01T11:13:18;12.60;52.20
32706;DHT22;19094;50.972;3.538;2023-03-01T11:16:02;12.70;51.30
32706;DHT22;19094;50.972;3.538;2023-03-01T11:18:30;12.90;51.60
32706;DHT22;19094;50.972;3.538;2023-03-01T11:20:56;13.10;51.70
32706;DHT22;19094;50.972;3.538;2023-03-01T11:23:24;13.00;51.40
32706;DHT22;19094;50.972;3.538;2023-03-01T11:25:57;13.10;51.20
32706;DHT22;19094;50.972;3.538;2023-03-01T11:28:25;13.20;51.40
32706;DHT22;19094;50.972;3.538;2023-03-01T11:31:07;13.40;50.30
32706;DHT22;19094;50.972;3.538;2023-03-01T11:38:40;13.80;48.40
32706;DHT22;19094;50.972;3.538;2023-03-01T11:41:14;13.80;49.00
32706;DHT22;19094;50.972;3.538;2023-03-01T11:43:53;13.90;49.20
32706;DHT22;19094;50.972;3.538;2023-03-01T11:52:16;14.40;47.00
32706;DHT22;19094;50.972;3.538;2023-03-01T12:11:33;15.50;46.00
32706;DHT22;19094;50.972;3.538;2023-03-01T12:22:37;15.80;45.10
32706;DHT22;19094;50.972;3.538;2023-03-01T12:25:11;15.90;45.00
32706;DHT22;19094;50.972;3.538;2023-03-01T12:28:04;16.10;45.00
32706;DHT22;19094;50.972;3.538;2023-03-01T12:36:18;16.60;43.50
32706;DHT22;19094;50.972;3.538;2023-03-01T12:41:48;16.90;42.90
32706;DHT22;19094;50.972;3.538;2023-03-01T12:45:02;16.90;43.10
32706;DHT22;19094;50.972;3.538;2023-03-01T12:50:11;17.20;42.70
32706;DHT22;19094;50.972;3.538;2023-03-01T12:52:46;17.40;41.30
32706;DHT22;19094;50.972;3.538;2023-03-01T12:55:40;17.60;41.90
32706;DHT22;19094;50.972;3.538;2023-03-01T12:58:20;17.60;41.70
32706;DHT22;19094;50.972;3.538;2023-03-01T13:06:43;18.20;40.80
32706;DHT22;19094;50.972;3.538;2023-03-01T13:11:41;18.40;38.60
32706;DHT22;19094;50.972;3.538;2023-03-01T13:16:49;18.50;39.80
32706;DHT22;19094;50.972;3.538;2023-03-01T13:19:26;18.60;39.90
32706;DHT22;19094;50.972;3.538;2023-03-01T13:21:54;18.70;39.50
32706;DHT22;19094;50.972;3.538;2023-03-01T13:24:27;18.80;39.30
32706;DHT22;19094;50.972;3.538;2023-03-01T13:29:51;19.00;39.30
32706;DHT22;19094;50.972;3.538;2023-03-01T13:35:03;19.20;38.20
32706;DHT22;19094;50.972;3.538;2023-03-01T13:37:39;19.30;38.60
32706;DHT22;19094;50.972;3.538;2023-03-01T13:42:56;19.40;38.40
32706;DHT22;19094;50.972;3.538;2023-03-01T13:45:36;19.40;38.70
32706;DHT22;19094;50.972;3.538;2023-03-01T13:48:22;19.40;36.00
32706;DHT22;19094;50.972;3.538;2023-03-01T13:50:58;19.60;37.70
32706;DHT22;19094;50.972;3.538;2023-03-01T13:53:27;19.60;38.00
32706;DHT22;19094;50.972;3.538;2023-03-01T13:56:00;19.80;37.40
32706;DHT22;19094;50.972;3.538;2023-03-01T13:58:33;19.70;38.30
32706;DHT22;19094;50.972;3.538;2023-03-01T14:01:07;19.70;36.50
32706;DHT22;19094;50.972;3.538;2023-03-01T14:03:41;19.70;38.40
32706;DHT22;19094;50.972;3.538;2023-03-01T14:06:10;19.70;38.30
32706;DHT22;19094;50.972;3.538;2023-03-01T14:08:37;19.70;36.80
32706;DHT22;19094;50.972;3.538;2023-03-01T14:19:12;19.90;38.00
32706;DHT22;19094;50.972;3.538;2023-03-01T14:21:42;20.00;38.00
32706;DHT22;19094;50.972;3.538;2023-03-01T14:24:17;20.10;37.60
32706;DHT22;19094;50.972;3.538;2023-03-01T14:26:44;20.20;37.80
32706;DHT22;19094;50.972;3.538;2023-03-01T14:31:51;20.30;37.60
32706;DHT22;19094;50.972;3.538;2023-03-01T14:34:23;20.30;37.60
32706;DHT22;19094;50.972;3.538;2023-03-01T14:36:50;20.40;35.80
32706;DHT22;19094;50.972;3.538;2023-03-01T14:39:17;20.40;37.00
32706;DHT22;19094;50.972;3.538;2023-03-01T14:41:43;20.50;35.40
32706;DHT22;19094;50.972;3.538;2023-03-01T14:44:16;20.50;37.20
32706;DHT22;19094;50.972;3.538;2023-03-01T14:46:44;20.50;37.00
32706;DHT22;19094;50.972;3.538;2023-03-01T14:49:15;20.60;36.00
32706;DHT22;19094;50.972;3.538;2023-03-01T14:51:46;20.70;36.50
32706;DHT22;19094;50.972;3.538;2023-03-01T14:54:27;20.60;36.80
32706;DHT22;19094;50.972;3.538;2023-03-01T14:56:58;20.70;36.20
32706;DHT22;19094;50.972;3.538;2023-03-01T14:59:24;20.60;36.60
32706;DHT22;19094;50.972;3.538;2023-03-01T15:01:55;20.50;37.30
32706;DHT22;19094;50.972;3.538;2023-03-01T15:04:22;20.50;35.60
32706;DHT22;19094;50.972;3.538;2023-03-01T15:06:55;20.70;36.50
32706;DHT22;19094;50.972;3.538;2023-03-01T15:09:31;20.70;36.80
32706;DHT22;19094;50.972;3.538;2023-03-01T15:11:58;20.70;36.60
32706;DHT22;19094;50.972;3.538;2023-03-01T15:17:30;20.50;37.60
32706;DHT22;19094;50.972;3.538;2023-03-01T15:19:56;20.40;37.80
32706;DHT22;19094;50.972;3.538;2023-03-01T15:22:23;20.50;36.60
32706;DHT22;19094;50.972;3.538;2023-03-01T15:24:50;20.50;37.20
32706;DHT22;19094;50.972;3.538;2023-03-01T15:27:18;20.50;37.80
32706;DHT22;19094;50.972;3.538;2023-03-01T15:30:02;20.50;37.00
32706;DHT22;19094;50.972;3.538;2023-03-01T15:32:30;20.50;35.40
32706;DHT22;19094;50.972;3.538;2023-03-01T15:34:57;20.60;37.00
32706;DHT22;19094;50.972;3.538;2023-03-01T15:37:53;20.50;34.50
32706;DHT22;19094;50.972;3.538;2023-03-01T15:40:48;20.60;37.10
32706;DHT22;19094;50.972;3.538;2023-03-01T15:43:41;20.60;36.40
32706;DHT22;19094;50.972;3.538;2023-03-01T15:46:37;20.50;37.40
32706;DHT22;19094;50.972;3.538;2023-03-01T15:49:05;20.40;37.50
32706;DHT22;19094;50.972;3.538;2023-03-01T15:51:36;20.40;36.90
32706;DHT22;19094;50.972;3.538;2023-03-01T15:54:12;20.40;37.00
32706;DHT22;19094;50.972;3.538;2023-03-01T15:56:38;20.20;38.20
32706;DHT22;19094;50.972;3.538;2023-03-01T15:59:04;20.30;37.40
32706;DHT22;19094;50.972;3.538;2023-03-01T16:01:31;20.20;38.00
32706;DHT22;19094;50.972;3.538;2023-03-01T16:03:59;20.10;36.90
32706;DHT22;19094;50.972;3.538;2023-03-01T16:06:25;20.10;38.20
32706;DHT22;19094;50.972;3.538;2023-03-01T16:08:51;20.10;37.50
32706;DHT22;19094;50.972;3.538;2023-03-01T16:11:18;20.00;38.60
32706;DHT22;19094;50.972;3.538;2023-03-01T16:13:45;19.90;38.30
32706;DHT22;19094;50.972;3.538;2023-03-01T16:16:12;19.80;38.60
32706;DHT22;19094;50.972;3.538;2023-03-01T16:18:41;19.80;37.90
32706;DHT22;19094;50.972;3.538;2023-03-01T16:21:12;19.60;39.40
32706;DHT22;19094;50.972;3.538;2023-03-01T16:23:38;19.60;38.90
32706;DHT22;19094;50.972;3.538;2023-03-01T16:26:04;19.40;39.50
32706;DHT22;19094;50.972;3.538;2023-03-01T16:28:29;19.10;40.00
32706;DHT22;19094;50.972;3.538;2023-03-01T16:30:55;18.80;40.70
32706;DHT22;19094;50.972;3.538;2023-03-01T16:33:21;18.50;41.30
32706;DHT22;19094;50.972;3.538;2023-03-01T16:35:46;18.20;42.20
32706;DHT22;19094;50.972;3.538;2023-03-01T16:38:12;18.00;42.60
32706;DHT22;19094;50.972;3.538;2023-03-01T16:40:37;17.70;43.30
32706;DHT22;19094;50.972;3.538;2023-03-01T16:43:03;17.50;43.80
32706;DHT22;19094;50.972;3.538;2023-03-01T16:45:34;17.30;44.30
32706;DHT22;19094;50.972;3.538;2023-03-01T16:48:06;17.10;44.60
32706;DHT22;19094;50.972;3.538;2023-03-01T16:50:32;16.90;45.00
32706;DHT22;19094;50.972;3.538;2023-03-01T16:52:57;16.70;45.40
32706;DHT22;19094;50.972;3.538;2023-03-01T16:55:23;16.60;45.70
32706;DHT22;19094;50.972;3.538;2023-03-01T16:57:49;16.40;45.70
32706;DHT22;19094;50.972;3.538;2023-03-01T17:00:15;16.30;45.90
32706;DHT22;19094;50.972;3.538;2023-03-01T17:02:41;16.20;46.80
32706;DHT22;19094;50.972;3.538;2023-03-01T17:05:08;16.10;46.60
32706;DHT22;19094;50.972;3.538;2023-03-01T17:07:34;16.00;46.50
32706;DHT22;19094;50.972;3.538;2023-03-01T17:10:00;15.90;44.90
32706;DHT22;19094;50.972;3.538;2023-03-01T17:12:26;15.80;44.00
32706;DHT22;19094;50.972;3.538;2023-03-01T17:14:52;15.70;44.60
32706;DHT22;19094;50.972;3.538;2023-03-01T17:17:18;15.60;44.40
32706;DHT22;19094;50.972;3.538;2023-03-01T17:19:44;15.60;44.20
32706;DHT22;19094;50.972;3.538;2023-03-01T17:22:10;15.50;44.50
32706;DHT22;19094;50.972;3.538;2023-03-01T17:24:39;15.40;44.30
32706;DHT22;19094;50.972;3.538;2023-03-01T17:27:06;15.30;45.00
32706;DHT22;19094;50.972;3.538;2023-03-01T17:29:33;15.20;48.40
32706;DHT22;19094;50.972;3.538;2023-03-01T17:31:58;15.10;47.50
32706;DHT22;19094;50.972;3.538;2023-03-01T17:34:24;15.10;46.50
32706;DHT22;19094;50.972;3.538;2023-03-01T17:36:51;15.00;45.70
32706;DHT22;19094;50.972;3.538;2023-03-01T17:39:19;15.00;46.00
32706;DHT22;19094;50.972;3.538;2023-03-01T17:41:50;14.90;46.50
32706;DHT22;19094;50.972;3.538;2023-03-01T17:44:16;14.90;46.60
32706;DHT22;19094;50.972;3.538;2023-03-01T17:46:42;14.90;47.20